sensor_id;sensor_type;location;lat;lon;timestamp;P1;durP1;ratioP1;P2;durP2;ratioP2
26098;SDS011;13860;52.370;6.764;2022-09-27T00:01:16;7.93;;;1.05;;
26098;SDS011;13860;52.370;6.764;2022-09-27T00:07:25;8.57;;;2.03;;
26098;SDS011;13860;52.370;6.764;2022-09-27T00:10:29;17.27;;;1.55;;
26098;SDS011;13860;52.370;6.764;2022-09-27T00:13:33;2.13;;;0.95;;
26098;SDS011;13860;52.370;6.764;2022-09-27T00:16:38;7.00;;;1.48;;
26098;SDS011;13860;52.370;6.764;2022-09-27T00:19:42;13.20;;;1.40;;
26098;SDS011;13860;52.370;6.764;2022-09-27T00:22:48;4.70;;;1.50;;
26098;SDS011;13860;52.370;6.764;2022-09-27T00:25:55;5.78;;;1.40;;
26098;SDS011;13860;52.370;6.764;2022-09-27T00:28:59;6.60;;;1.00;;
26098;SDS011;13860;52.370;6.764;2022-09-27T00:32:02;6.78;;;1.20;;
26098;SDS011;13860;52.370;6.764;2022-09-27T00:35:06;28.85;;;3.63;;
26098;SDS011;13860;52.370;6.764;2022-09-27T00:38:12;9.00;;;1.60;;
26098;SDS011;13860;52.370;6.764;2022-09-27T00:41:17;6.05;;;1.40;;
26098;SDS011;13860;52.370;6.764;2022-09-27T00:47:57;5.93;;;1.40;;
26098;SDS011;13860;52.370;6.764;2022-09-27T00:51:03;4.70;;;0.90;;
26098;SDS011;13860;52.370;6.764;2022-09-27T00:54:12;6.15;;;1.08;;
26098;SDS011;13860;52.370;6.764;2022-09-27T00:57:19;8.55;;;1.70;;
26098;SDS011;13860;52.370;6.764;2022-09-27T01:00:24;5.82;;;1.50;;
26098;SDS011;13860;52.370;6.764;2022-09-27T01:03:29;5.78;;;1.48;;
26098;SDS011;13860;52.370;6.764;2022-09-27T01:06:39;7.85;;;1.30;;
26098;SDS011;13860;52.370;6.764;2022-09-27T01:09:46;4.10;;;1.02;;
26098;SDS011;13860;52.370;6.764;2022-09-27T01:12:53;6.13;;;1.77;;
26098;SDS011;13860;52.370;6.764;2022-09-27T01:16:08;6.78;;;1.15;;
26098;SDS011;13860;52.370;6.764;2022-09-27T01:19:28;3.25;;;1.23;;
26098;SDS011;13860;52.370;6.764;2022-09-27T01:22:56;1.92;;;0.93;;
26098;SDS011;13860;52.370;6.764;2022-09-27T01:26:19;4.97;;;0.82;;
26098;SDS011;13860;52.370;6.764;2022-09-27T01:29:34;7.43;;;1.23;;
26098;SDS011;13860;52.370;6.764;2022-09-27T01:32:57;7.32;;;1.00;;
26098;SDS011;13860;52.370;6.764;2022-09-27T01:39:32;3.65;;;0.70;;
26098;SDS011;13860;52.370;6.764;2022-09-27T01:43:16;3.35;;;0.80;;
26098;SDS011;13860;52.370;6.764;2022-09-27T01:46:25;7.05;;;0.82;;
26098;SDS011;13860;52.370;6.764;2022-09-27T01:49:53;1.15;;;0.63;;
26098;SDS011;13860;52.370;6.764;2022-09-27T01:53:01;1.55;;;0.60;;
26098;SDS011;13860;52.370;6.764;2022-09-27T01:56:20;3.72;;;0.73;;
26098;SDS011;13860;52.370;6.764;2022-09-27T01:59:32;3.22;;;0.65;;
26098;SDS011;13860;52.370;6.764;2022-09-27T02:02:59;7.65;;;1.05;;
26098;SDS011;13860;52.370;6.764;2022-09-27T02:06:11;2.58;;;0.70;;
26098;SDS011;13860;52.370;6.764;2022-09-27T02:09:32;4.85;;;1.02;;
26098;SDS011;13860;52.370;6.764;2022-09-27T02:12:55;5.05;;;0.80;;
26098;SDS011;13860;52.370;6.764;2022-09-27T02:16:05;3.55;;;0.75;;
26098;SDS011;13860;52.370;6.764;2022-09-27T02:19:25;4.95;;;0.70;;
26098;SDS011;13860;52.370;6.764;2022-09-27T02:22:40;3.20;;;0.50;;
26098;SDS011;13860;52.370;6.764;2022-09-27T02:25:49;2.72;;;0.63;;
26098;SDS011;13860;52.370;6.764;2022-09-27T02:28:58;3.58;;;0.75;;
26098;SDS011;13860;52.370;6.764;2022-09-27T02:32:13;4.13;;;0.80;;
26098;SDS011;13860;52.370;6.764;2022-09-27T02:35:18;5.70;;;0.73;;
26098;SDS011;13860;52.370;6.764;2022-09-27T02:38:28;4.38;;;1.00;;
26098;SDS011;13860;52.370;6.764;2022-09-27T02:41:33;2.88;;;0.95;;
26098;SDS011;13860;52.370;6.764;2022-09-27T02:44:37;2.35;;;0.80;;
26098;SDS011;13860;52.370;6.764;2022-09-27T02:47:46;2.58;;;0.80;;
26098;SDS011;13860;52.370;6.764;2022-09-27T02:51:03;5.35;;;0.90;;
26098;SDS011;13860;52.370;6.764;2022-09-27T02:54:20;10.52;;;0.60;;
26098;SDS011;13860;52.370;6.764;2022-09-27T02:57:54;7.43;;;1.00;;
26098;SDS011;13860;52.370;6.764;2022-09-27T03:01:29;3.50;;;0.70;;
26098;SDS011;13860;52.370;6.764;2022-09-27T03:04:56;2.13;;;0.70;;
26098;SDS011;13860;52.370;6.764;2022-09-27T03:08:03;5.55;;;1.20;;
26098;SDS011;13860;52.370;6.764;2022-09-27T03:11:10;6.60;;;0.75;;
26098;SDS011;13860;52.370;6.764;2022-09-27T03:14:14;7.70;;;0.90;;
26098;SDS011;13860;52.370;6.764;2022-09-27T03:17:29;9.55;;;0.80;;
26098;SDS011;13860;52.370;6.764;2022-09-27T03:20:56;4.90;;;0.80;;
26098;SDS011;13860;52.370;6.764;2022-09-27T03:23:59;3.75;;;0.93;;
26098;SDS011;13860;52.370;6.764;2022-09-27T03:27:06;2.63;;;0.73;;
26098;SDS011;13860;52.370;6.764;2022-09-27T03:30:11;3.45;;;0.85;;
26098;SDS011;13860;52.370;6.764;2022-09-27T03:33:16;2.03;;;0.45;;
26098;SDS011;13860;52.370;6.764;2022-09-27T03:36:31;5.00;;;0.80;;
26098;SDS011;13860;52.370;6.764;2022-09-27T03:39:35;5.28;;;0.75;;
26098;SDS011;13860;52.370;6.764;2022-09-27T03:42:40;1.95;;;0.60;;
26098;SDS011;13860;52.370;6.764;2022-09-27T03:45:50;2.05;;;0.73;;
26098;SDS011;13860;52.370;6.764;2022-09-27T03:48:54;1.45;;;0.70;;
26098;SDS011;13860;52.370;6.764;2022-09-27T03:51:58;3.45;;;0.70;;
26098;SDS011;13860;52.370;6.764;2022-09-27T03:55:01;3.03;;;0.63;;
26098;SDS011;13860;52.370;6.764;2022-09-27T03:58:08;4.78;;;0.95;;
26098;SDS011;13860;52.370;6.764;2022-09-27T04:01:12;2.45;;;0.68;;
26098;SDS011;13860;52.370;6.764;2022-09-27T04:04:18;0.63;;;0.60;;
26098;SDS011;13860;52.370;6.764;2022-09-27T04:07:21;3.05;;;0.77;;
26098;SDS011;13860;52.370;6.764;2022-09-27T04:13:31;2.97;;;0.55;;
26098;SDS011;13860;52.370;6.764;2022-09-27T04:16:35;1.13;;;0.43;;
26098;SDS011;13860;52.370;6.764;2022-09-27T04:19:59;5.22;;;1.02;;
26098;SDS011;13860;52.370;6.764;2022-09-27T04:23:05;2.45;;;0.57;;
26098;SDS011;13860;52.370;6.764;2022-09-27T04:26:11;7.18;;;1.52;;
26098;SDS011;13860;52.370;6.764;2022-09-27T04:29:24;3.05;;;0.65;;
26098;SDS011;13860;52.370;6.764;2022-09-27T04:32:28;2.22;;;0.60;;
26098;SDS011;13860;52.370;6.764;2022-09-27T04:35:55;3.72;;;0.60;;
26098;SDS011;13860;52.370;6.764;2022-09-27T04:39:14;6.65;;;0.90;;
26098;SDS011;13860;52.370;6.764;2022-09-27T04:42:19;2.33;;;0.55;;
26098;SDS011;13860;52.370;6.764;2022-09-27T04:45:24;3.05;;;0.85;;
26098;SDS011;13860;52.370;6.764;2022-09-27T04:48:28;1.83;;;0.47;;
26098;SDS011;13860;52.370;6.764;2022-09-27T04:51:32;6.80;;;0.93;;
26098;SDS011;13860;52.370;6.764;2022-09-27T04:54:36;3.03;;;0.85;;
26098;SDS011;13860;52.370;6.764;2022-09-27T04:57:49;2.47;;;0.70;;
26098;SDS011;13860;52.370;6.764;2022-09-27T05:00:55;5.55;;;0.70;;
26098;SDS011;13860;52.370;6.764;2022-09-27T05:04:34;6.43;;;0.68;;
26098;SDS011;13860;52.370;6.764;2022-09-27T05:07:39;7.55;;;2.15;;
26098;SDS011;13860;52.370;6.764;2022-09-27T05:10:48;4.97;;;0.77;;
26098;SDS011;13860;52.370;6.764;2022-09-27T05:13:53;5.35;;;1.13;;
26098;SDS011;13860;52.370;6.764;2022-09-27T05:17:00;5.75;;;0.75;;
26098;SDS011;13860;52.370;6.764;2022-09-27T05:20:04;6.07;;;1.20;;
26098;SDS011;13860;52.370;6.764;2022-09-27T05:23:17;5.90;;;0.70;;
26098;SDS011;13860;52.370;6.764;2022-09-27T05:26:21;2.63;;;0.85;;
26098;SDS011;13860;52.370;6.764;2022-09-27T05:29:24;4.47;;;0.75;;
26098;SDS011;13860;52.370;6.764;2022-09-27T05:32:45;2.38;;;0.75;;
26098;SDS011;13860;52.370;6.764;2022-09-27T05:36:08;11.75;;;0.90;;
26098;SDS011;13860;52.370;6.764;2022-09-27T05:39:12;7.20;;;0.95;;
26098;SDS011;13860;52.370;6.764;2022-09-27T05:42:16;5.57;;;1.30;;
26098;SDS011;13860;52.370;6.764;2022-09-27T05:45:21;12.77;;;1.33;;
26098;SDS011;13860;52.370;6.764;2022-09-27T05:48:31;2.88;;;0.82;;
26098;SDS011;13860;52.370;6.764;2022-09-27T05:51:39;8.20;;;1.02;;
26098;SDS011;13860;52.370;6.764;2022-09-27T05:54:44;4.38;;;1.08;;
26098;SDS011;13860;52.370;6.764;2022-09-27T05:57:53;2.60;;;1.20;;
26098;SDS011;13860;52.370;6.764;2022-09-27T06:01:04;9.60;;;1.50;;
26098;SDS011;13860;52.370;6.764;2022-09-27T06:04:31;7.40;;;2.60;;
26098;SDS011;13860;52.370;6.764;2022-09-27T06:07:58;3.92;;;1.00;;
26098;SDS011;13860;52.370;6.764;2022-09-27T06:11:11;5.22;;;1.35;;
26098;SDS011;13860;52.370;6.764;2022-09-27T06:14:15;10.93;;;1.30;;
26098;SDS011;13860;52.370;6.764;2022-09-27T06:17:39;8.80;;;1.15;;
26098;SDS011;13860;52.370;6.764;2022-09-27T06:20:51;10.73;;;1.15;;
26098;SDS011;13860;52.370;6.764;2022-09-27T06:23:54;2.15;;;0.88;;
26098;SDS011;13860;52.370;6.764;2022-09-27T06:27:06;8.48;;;1.33;;
26098;SDS011;13860;52.370;6.764;2022-09-27T06:30:40;14.95;;;1.63;;
26098;SDS011;13860;52.370;6.764;2022-09-27T06:33:55;3.92;;;1.23;;
26098;SDS011;13860;52.370;6.764;2022-09-27T06:37:00;4.90;;;1.00;;
26098;SDS011;13860;52.370;6.764;2022-09-27T06:40:05;4.78;;;1.40;;
26098;SDS011;13860;52.370;6.764;2022-09-27T06:43:32;9.63;;;1.17;;
26098;SDS011;13860;52.370;6.764;2022-09-27T06:46:55;5.50;;;1.15;;
26098;SDS011;13860;52.370;6.764;2022-09-27T06:50:19;7.07;;;1.30;;
26098;SDS011;13860;52.370;6.764;2022-09-27T06:53:25;5.75;;;1.40;;
26098;SDS011;13860;52.370;6.764;2022-09-27T06:56:29;12.27;;;1.80;;
26098;SDS011;13860;52.370;6.764;2022-09-27T06:59:34;6.82;;;1.27;;
26098;SDS011;13860;52.370;6.764;2022-09-27T07:03:31;3.83;;;1.05;;
26098;SDS011;13860;52.370;6.764;2022-09-27T07:06:53;4.45;;;0.85;;
26098;SDS011;13860;52.370;6.764;2022-09-27T07:10:06;4.00;;;0.90;;
26098;SDS011;13860;52.370;6.764;2022-09-27T07:13:11;3.78;;;1.00;;
26098;SDS011;13860;52.370;6.764;2022-09-27T07:19:19;8.90;;;1.50;;
26098;SDS011;13860;52.370;6.764;2022-09-27T07:22:23;4.88;;;0.80;;
26098;SDS011;13860;52.370;6.764;2022-09-27T07:25:34;5.57;;;1.30;;
26098;SDS011;13860;52.370;6.764;2022-09-27T07:28:40;9.52;;;1.23;;
26098;SDS011;13860;52.370;6.764;2022-09-27T07:31:48;6.93;;;1.65;;
26098;SDS011;13860;52.370;6.764;2022-09-27T07:37:56;2.95;;;1.40;;
26098;SDS011;13860;52.370;6.764;2022-09-27T07:41:06;9.15;;;1.55;;
26098;SDS011;13860;52.370;6.764;2022-09-27T07:44:10;8.23;;;1.33;;
26098;SDS011;13860;52.370;6.764;2022-09-27T07:47:32;6.65;;;3.65;;
26098;SDS011;13860;52.370;6.764;2022-09-27T07:50:51;6.13;;;1.52;;
26098;SDS011;13860;52.370;6.764;2022-09-27T07:54:13;7.88;;;2.17;;
26098;SDS011;13860;52.370;6.764;2022-09-27T07:57:31;6.18;;;1.40;;
26098;SDS011;13860;52.370;6.764;2022-09-27T08:00:35;9.73;;;1.20;;
26098;SDS011;13860;52.370;6.764;2022-09-27T08:03:43;14.90;;;2.25;;
26098;SDS011;13860;52.370;6.764;2022-09-27T08:06:48;8.23;;;1.30;;
26098;SDS011;13860;52.370;6.764;2022-09-27T08:12:58;4.70;;;1.27;;
26098;SDS011;13860;52.370;6.764;2022-09-27T08:16:04;7.97;;;1.10;;
26098;SDS011;13860;52.370;6.764;2022-09-27T08:19:28;6.15;;;1.10;;
26098;SDS011;13860;52.370;6.764;2022-09-27T08:22:50;4.72;;;1.40;;
26098;SDS011;13860;52.370;6.764;2022-09-27T08:26:06;3.20;;;0.98;;
26098;SDS011;13860;52.370;6.764;2022-09-27T08:29:24;9.30;;;1.38;;
26098;SDS011;13860;52.370;6.764;2022-09-27T08:32:29;6.68;;;1.50;;
26098;SDS011;13860;52.370;6.764;2022-09-27T08:35:34;6.30;;;1.33;;
26098;SDS011;13860;52.370;6.764;2022-09-27T08:38:39;11.35;;;1.48;;
26098;SDS011;13860;52.370;6.764;2022-09-27T08:41:45;9.20;;;1.58;;
26098;SDS011;13860;52.370;6.764;2022-09-27T08:44:58;8.02;;;1.30;;
26098;SDS011;13860;52.370;6.764;2022-09-27T08:48:10;7.55;;;1.50;;
26098;SDS011;13860;52.370;6.764;2022-09-27T08:51:14;7.60;;;1.15;;
26098;SDS011;13860;52.370;6.764;2022-09-27T08:54:26;1.95;;;0.90;;
26098;SDS011;13860;52.370;6.764;2022-09-27T08:57:32;3.22;;;1.00;;
26098;SDS011;13860;52.370;6.764;2022-09-27T09:00:39;4.57;;;1.40;;
26098;SDS011;13860;52.370;6.764;2022-09-27T09:03:47;3.38;;;0.90;;
26098;SDS011;13860;52.370;6.764;2022-09-27T09:06:54;7.38;;;1.08;;
26098;SDS011;13860;52.370;6.764;2022-09-27T09:10:11;9.20;;;0.88;;
26098;SDS011;13860;52.370;6.764;2022-09-27T09:13:52;6.47;;;2.17;;
26098;SDS011;13860;52.370;6.764;2022-09-27T09:17:19;7.10;;;1.00;;
26098;SDS011;13860;52.370;6.764;2022-09-27T09:20:53;1.70;;;0.70;;
26098;SDS011;13860;52.370;6.764;2022-09-27T09:24:12;6.05;;;2.00;;
26098;SDS011;13860;52.370;6.764;2022-09-27T09:27:31;5.13;;;1.00;;
26098;SDS011;13860;52.370;6.764;2022-09-27T09:30:43;4.40;;;1.20;;
26098;SDS011;13860;52.370;6.764;2022-09-27T09:33:57;6.00;;;0.93;;
26098;SDS011;13860;52.370;6.764;2022-09-27T09:37:09;4.07;;;0.90;;
26098;SDS011;13860;52.370;6.764;2022-09-27T09:40:16;7.30;;;1.00;;
26098;SDS011;13860;52.370;6.764;2022-09-27T09:43:25;5.57;;;0.77;;
26098;SDS011;13860;52.370;6.764;2022-09-27T09:46:35;3.25;;;0.70;;
26098;SDS011;13860;52.370;6.764;2022-09-27T09:49:50;1.38;;;0.80;;
26098;SDS011;13860;52.370;6.764;2022-09-27T09:52:58;4.90;;;0.90;;
26098;SDS011;13860;52.370;6.764;2022-09-27T09:56:09;4.57;;;0.73;;
26098;SDS011;13860;52.370;6.764;2022-09-27T09:59:22;2.05;;;0.70;;
26098;SDS011;13860;52.370;6.764;2022-09-27T10:02:30;3.35;;;0.65;;
26098;SDS011;13860;52.370;6.764;2022-09-27T10:05:45;2.38;;;0.52;;
26098;SDS011;13860;52.370;6.764;2022-09-27T10:08:49;3.58;;;0.43;;
26098;SDS011;13860;52.370;6.764;2022-09-27T10:12:04;2.38;;;0.43;;
26098;SDS011;13860;52.370;6.764;2022-09-27T10:15:11;0.90;;;0.30;;
26098;SDS011;13860;52.370;6.764;2022-09-27T10:18:18;2.55;;;1.00;;
26098;SDS011;13860;52.370;6.764;2022-09-27T10:21:26;4.82;;;0.90;;
26098;SDS011;13860;52.370;6.764;2022-09-27T10:24:34;1.70;;;0.60;;
26098;SDS011;13860;52.370;6.764;2022-09-27T10:28:25;0.88;;;0.45;;
26098;SDS011;13860;52.370;6.764;2022-09-27T10:31:34;4.93;;;0.70;;
26098;SDS011;13860;52.370;6.764;2022-09-27T10:34:46;3.83;;;0.50;;
26098;SDS011;13860;52.370;6.764;2022-09-27T10:37:53;0.90;;;0.25;;
26098;SDS011;13860;52.370;6.764;2022-09-27T10:41:15;0.98;;;0.47;;
26098;SDS011;13860;52.370;6.764;2022-09-27T10:44:25;2.83;;;0.40;;
26098;SDS011;13860;52.370;6.764;2022-09-27T10:47:43;2.30;;;0.50;;
26098;SDS011;13860;52.370;6.764;2022-09-27T10:50:58;3.88;;;0.90;;
26098;SDS011;13860;52.370;6.764;2022-09-27T10:54:20;4.90;;;0.70;;
26098;SDS011;13860;52.370;6.764;2022-09-27T10:57:28;2.38;;;0.75;;
26098;SDS011;13860;52.370;6.764;2022-09-27T11:00:34;3.08;;;0.73;;
26098;SDS011;13860;52.370;6.764;2022-09-27T11:03:44;2.25;;;0.60;;
26098;SDS011;13860;52.370;6.764;2022-09-27T11:06:49;9.43;;;0.90;;
26098;SDS011;13860;52.370;6.764;2022-09-27T11:09:57;1.92;;;0.98;;
26098;SDS011;13860;52.370;6.764;2022-09-27T11:13:04;1.13;;;0.80;;
26098;SDS011;13860;52.370;6.764;2022-09-27T11:16:17;1.75;;;0.55;;
26098;SDS011;13860;52.370;6.764;2022-09-27T11:19:34;2.33;;;0.60;;
26098;SDS011;13860;52.370;6.764;2022-09-27T11:22:58;3.65;;;0.63;;
26098;SDS011;13860;52.370;6.764;2022-09-27T11:26:35;4.00;;;1.58;;
26098;SDS011;13860;52.370;6.764;2022-09-27T11:29:51;0.90;;;0.50;;
26098;SDS011;13860;52.370;6.764;2022-09-27T11:33:30;1.27;;;0.60;;
26098;SDS011;13860;52.370;6.764;2022-09-27T11:37:00;1.83;;;0.68;;
26098;SDS011;13860;52.370;6.764;2022-09-27T11:40:18;2.95;;;0.70;;
26098;SDS011;13860;52.370;6.764;2022-09-27T11:50:18;0.28;;;0.20;;
26098;SDS011;13860;52.370;6.764;2022-09-27T11:53:52;0.63;;;0.40;;
26098;SDS011;13860;52.370;6.764;2022-09-27T11:57:10;1.85;;;0.40;;
26098;SDS011;13860;52.370;6.764;2022-09-27T12:00:26;0.20;;;0.20;;
26098;SDS011;13860;52.370;6.764;2022-09-27T12:03:51;2.60;;;0.28;;
26098;SDS011;13860;52.370;6.764;2022-09-27T12:07:25;0.95;;;0.40;;
26098;SDS011;13860;52.370;6.764;2022-09-27T12:10:36;4.78;;;0.43;;
26098;SDS011;13860;52.370;6.764;2022-09-27T12:13:45;1.17;;;0.40;;
26098;SDS011;13860;52.370;6.764;2022-09-27T12:16:57;1.85;;;0.35;;
26098;SDS011;13860;52.370;6.764;2022-09-27T12:20:02;4.80;;;2.15;;
26098;SDS011;13860;52.370;6.764;2022-09-27T12:23:17;3.13;;;0.68;;
26098;SDS011;13860;52.370;6.764;2022-09-27T12:26:36;4.07;;;0.82;;
26098;SDS011;13860;52.370;6.764;2022-09-27T12:29:42;1.63;;;0.60;;
26098;SDS011;13860;52.370;6.764;2022-09-27T12:32:54;4.30;;;0.80;;
26098;SDS011;13860;52.370;6.764;2022-09-27T12:36:03;0.70;;;0.43;;
26098;SDS011;13860;52.370;6.764;2022-09-27T12:39:12;1.65;;;0.77;;
26098;SDS011;13860;52.370;6.764;2022-09-27T12:42:27;3.38;;;0.68;;
26098;SDS011;13860;52.370;6.764;2022-09-27T12:45:42;3.50;;;0.93;;
26098;SDS011;13860;52.370;6.764;2022-09-27T12:48:55;7.55;;;1.52;;
26098;SDS011;13860;52.370;6.764;2022-09-27T12:52:08;5.55;;;0.95;;
26098;SDS011;13860;52.370;6.764;2022-09-27T12:55:21;1.38;;;0.57;;
26098;SDS011;13860;52.370;6.764;2022-09-27T12:58:48;1.92;;;0.68;;
26098;SDS011;13860;52.370;6.764;2022-09-27T13:06:37;1.15;;;0.50;;
26098;SDS011;13860;52.370;6.764;2022-09-27T13:13:41;8.55;;;0.75;;
26098;SDS011;13860;52.370;6.764;2022-09-27T13:16:46;2.58;;;0.50;;
26098;SDS011;13860;52.370;6.764;2022-09-27T13:19:53;3.17;;;0.68;;
26098;SDS011;13860;52.370;6.764;2022-09-27T13:22:59;5.38;;;0.98;;
26098;SDS011;13860;52.370;6.764;2022-09-27T13:26:19;1.45;;;0.50;;
26098;SDS011;13860;52.370;6.764;2022-09-27T13:29:31;2.30;;;0.60;;
26098;SDS011;13860;52.370;6.764;2022-09-27T13:32:46;2.00;;;0.40;;
26098;SDS011;13860;52.370;6.764;2022-09-27T13:36:35;1.13;;;0.50;;
26098;SDS011;13860;52.370;6.764;2022-09-27T13:39:45;2.80;;;0.50;;
26098;SDS011;13860;52.370;6.764;2022-09-27T13:47:13;3.05;;;0.38;;
26098;SDS011;13860;52.370;6.764;2022-09-27T13:50:26;3.25;;;0.80;;
26098;SDS011;13860;52.370;6.764;2022-09-27T13:53:40;0.95;;;0.60;;
26098;SDS011;13860;52.370;6.764;2022-09-27T13:56:50;0.73;;;0.40;;
26098;SDS011;13860;52.370;6.764;2022-09-27T13:59:56;2.28;;;0.60;;
26098;SDS011;13860;52.370;6.764;2022-09-27T14:03:25;2.08;;;0.80;;
26098;SDS011;13860;52.370;6.764;2022-09-27T14:06:34;2.78;;;0.63;;
26098;SDS011;13860;52.370;6.764;2022-09-27T14:09:47;2.35;;;0.90;;
26098;SDS011;13860;52.370;6.764;2022-09-27T14:13:01;5.40;;;0.80;;
26098;SDS011;13860;52.370;6.764;2022-09-27T14:16:15;1.88;;;0.65;;
26098;SDS011;13860;52.370;6.764;2022-09-27T14:19:23;0.68;;;0.47;;
26098;SDS011;13860;52.370;6.764;2022-09-27T14:22:27;4.60;;;0.70;;
26098;SDS011;13860;52.370;6.764;2022-09-27T14:25:43;4.47;;;0.98;;
26098;SDS011;13860;52.370;6.764;2022-09-27T14:28:51;1.63;;;0.90;;
26098;SDS011;13860;52.370;6.764;2022-09-27T14:32:07;2.28;;;0.98;;
26098;SDS011;13860;52.370;6.764;2022-09-27T14:35:21;2.25;;;0.70;;
26098;SDS011;13860;52.370;6.764;2022-09-27T14:38:40;1.88;;;0.57;;
26098;SDS011;13860;52.370;6.764;2022-09-27T14:41:53;3.55;;;0.68;;
26098;SDS011;13860;52.370;6.764;2022-09-27T14:45:00;1.95;;;0.60;;
26098;SDS011;13860;52.370;6.764;2022-09-27T14:48:16;1.15;;;0.40;;
26098;SDS011;13860;52.370;6.764;2022-09-27T14:51:26;5.43;;;1.02;;
26098;SDS011;13860;52.370;6.764;2022-09-27T14:54:30;4.78;;;0.75;;
26098;SDS011;13860;52.370;6.764;2022-09-27T14:57:34;2.13;;;0.60;;
26098;SDS011;13860;52.370;6.764;2022-09-27T15:00:44;2.42;;;0.55;;
26098;SDS011;13860;52.370;6.764;2022-09-27T15:03:49;1.58;;;0.47;;
26098;SDS011;13860;52.370;6.764;2022-09-27T15:06:53;4.10;;;0.60;;
26098;SDS011;13860;52.370;6.764;2022-09-27T15:09:58;2.20;;;0.55;;
26098;SDS011;13860;52.370;6.764;2022-09-27T15:13:02;3.28;;;1.05;;
26098;SDS011;13860;52.370;6.764;2022-09-27T15:16:09;0.57;;;0.50;;
26098;SDS011;13860;52.370;6.764;2022-09-27T15:19:21;2.65;;;1.00;;
26098;SDS011;13860;52.370;6.764;2022-09-27T15:22:31;3.65;;;1.20;;
26098;SDS011;13860;52.370;6.764;2022-09-27T15:25:38;1.08;;;0.70;;
26098;SDS011;13860;52.370;6.764;2022-09-27T15:28:46;2.20;;;0.50;;
26098;SDS011;13860;52.370;6.764;2022-09-27T15:31:59;3.25;;;0.90;;
26098;SDS011;13860;52.370;6.764;2022-09-27T15:38:21;2.67;;;0.50;;
26098;SDS011;13860;52.370;6.764;2022-09-27T15:41:27;2.30;;;0.90;;
26098;SDS011;13860;52.370;6.764;2022-09-27T15:45:07;2.25;;;0.75;;
26098;SDS011;13860;52.370;6.764;2022-09-27T15:48:32;1.25;;;0.70;;
26098;SDS011;13860;52.370;6.764;2022-09-27T15:51:37;3.58;;;1.52;;
26098;SDS011;13860;52.370;6.764;2022-09-27T15:54:42;2.85;;;0.95;;
26098;SDS011;13860;52.370;6.764;2022-09-27T15:57:46;2.08;;;0.75;;
26098;SDS011;13860;52.370;6.764;2022-09-27T16:00:52;30.98;;;1.70;;
26098;SDS011;13860;52.370;6.764;2022-09-27T16:03:59;0.73;;;0.40;;
26098;SDS011;13860;52.370;6.764;2022-09-27T16:07:03;1.02;;;0.52;;
26098;SDS011;13860;52.370;6.764;2022-09-27T16:10:11;2.25;;;0.70;;
26098;SDS011;13860;52.370;6.764;2022-09-27T16:13:16;4.68;;;0.68;;
26098;SDS011;13860;52.370;6.764;2022-09-27T16:16:20;0.98;;;0.50;;
26098;SDS011;13860;52.370;6.764;2022-09-27T16:19:26;2.35;;;0.40;;
26098;SDS011;13860;52.370;6.764;2022-09-27T16:22:30;3.55;;;0.80;;
26098;SDS011;13860;52.370;6.764;2022-09-27T16:25:34;0.70;;;0.40;;
26098;SDS011;13860;52.370;6.764;2022-09-27T16:28:37;1.85;;;0.57;;
26098;SDS011;13860;52.370;6.764;2022-09-27T16:31:41;3.00;;;1.10;;
26098;SDS011;13860;52.370;6.764;2022-09-27T16:34:47;2.33;;;0.85;;
26098;SDS011;13860;52.370;6.764;2022-09-27T16:37:51;2.97;;;1.65;;
26098;SDS011;13860;52.370;6.764;2022-09-27T16:40:58;1.90;;;0.80;;
26098;SDS011;13860;52.370;6.764;2022-09-27T16:44:07;1.90;;;0.80;;
26098;SDS011;13860;52.370;6.764;2022-09-27T16:47:11;0.98;;;0.80;;
26098;SDS011;13860;52.370;6.764;2022-09-27T16:50:17;4.43;;;0.70;;
26098;SDS011;13860;52.370;6.764;2022-09-27T16:53:33;0.60;;;0.60;;
26098;SDS011;13860;52.370;6.764;2022-09-27T16:56:37;0.50;;;0.40;;
26098;SDS011;13860;52.370;6.764;2022-09-27T16:59:41;1.10;;;0.60;;
26098;SDS011;13860;52.370;6.764;2022-09-27T17:02:46;3.53;;;1.23;;
26098;SDS011;13860;52.370;6.764;2022-09-27T17:05:55;2.92;;;0.80;;
26098;SDS011;13860;52.370;6.764;2022-09-27T17:09:03;5.00;;;0.80;;
26098;SDS011;13860;52.370;6.764;2022-09-27T17:18:16;3.57;;;1.13;;
26098;SDS011;13860;52.370;6.764;2022-09-27T17:21:21;9.82;;;1.20;;
26098;SDS011;13860;52.370;6.764;2022-09-27T17:24:25;1.95;;;0.70;;
26098;SDS011;13860;52.370;6.764;2022-09-27T17:27:29;1.13;;;0.73;;
26098;SDS011;13860;52.370;6.764;2022-09-27T17:30:32;5.65;;;1.52;;
26098;SDS011;13860;52.370;6.764;2022-09-27T17:33:43;3.97;;;0.98;;
26098;SDS011;13860;52.370;6.764;2022-09-27T17:36:50;0.90;;;0.40;;
26098;SDS011;13860;52.370;6.764;2022-09-27T17:39:54;0.75;;;0.52;;
26098;SDS011;13860;52.370;6.764;2022-09-27T17:42:57;2.15;;;0.60;;
26098;SDS011;13860;52.370;6.764;2022-09-27T17:46:02;1.30;;;0.50;;
26098;SDS011;13860;52.370;6.764;2022-09-27T17:49:07;3.92;;;0.70;;
26098;SDS011;13860;52.370;6.764;2022-09-27T17:52:26;3.35;;;0.68;;
26098;SDS011;13860;52.370;6.764;2022-09-27T17:55:30;4.63;;;0.93;;
26098;SDS011;13860;52.370;6.764;2022-09-27T17:58:34;1.75;;;0.93;;
26098;SDS011;13860;52.370;6.764;2022-09-27T18:01:38;1.10;;;0.80;;
26098;SDS011;13860;52.370;6.764;2022-09-27T18:04:42;3.90;;;0.93;;
26098;SDS011;13860;52.370;6.764;2022-09-27T18:07:47;5.53;;;1.38;;
26098;SDS011;13860;52.370;6.764;2022-09-27T18:10:51;2.65;;;1.42;;
26098;SDS011;13860;52.370;6.764;2022-09-27T18:13:55;4.13;;;0.85;;
26098;SDS011;13860;52.370;6.764;2022-09-27T18:17:00;2.30;;;0.90;;
26098;SDS011;13860;52.370;6.764;2022-09-27T18:20:04;1.10;;;0.95;;
26098;SDS011;13860;52.370;6.764;2022-09-27T18:23:10;2.90;;;0.90;;
26098;SDS011;13860;52.370;6.764;2022-09-27T18:26:14;5.18;;;1.63;;
26098;SDS011;13860;52.370;6.764;2022-09-27T18:29:18;5.60;;;1.13;;
26098;SDS011;13860;52.370;6.764;2022-09-27T18:32:22;2.17;;;1.25;;
26098;SDS011;13860;52.370;6.764;2022-09-27T18:35:25;6.80;;;1.95;;
26098;SDS011;13860;52.370;6.764;2022-09-27T18:38:31;2.55;;;1.13;;
26098;SDS011;13860;52.370;6.764;2022-09-27T18:41:36;3.63;;;1.00;;
26098;SDS011;13860;52.370;6.764;2022-09-27T18:44:40;4.10;;;0.90;;
26098;SDS011;13860;52.370;6.764;2022-09-27T18:47:43;2.40;;;0.80;;
26098;SDS011;13860;52.370;6.764;2022-09-27T18:50:47;4.35;;;0.77;;
26098;SDS011;13860;52.370;6.764;2022-09-27T18:53:54;4.13;;;2.40;;
26098;SDS011;13860;52.370;6.764;2022-09-27T18:56:59;5.18;;;2.35;;
26098;SDS011;13860;52.370;6.764;2022-09-27T19:00:03;3.53;;;2.05;;
26098;SDS011;13860;52.370;6.764;2022-09-27T19:03:09;5.47;;;2.70;;
26098;SDS011;13860;52.370;6.764;2022-09-27T19:06:17;5.55;;;2.90;;
26098;SDS011;13860;52.370;6.764;2022-09-27T19:09:23;7.72;;;2.70;;
26098;SDS011;13860;52.370;6.764;2022-09-27T19:12:28;3.47;;;2.85;;
26098;SDS011;13860;52.370;6.764;2022-09-27T19:15:31;5.32;;;3.22;;
26098;SDS011;13860;52.370;6.764;2022-09-27T19:18:35;6.05;;;3.65;;
26098;SDS011;13860;52.370;6.764;2022-09-27T19:21:40;5.60;;;3.10;;
26098;SDS011;13860;52.370;6.764;2022-09-27T19:24:45;6.28;;;3.40;;
26098;SDS011;13860;52.370;6.764;2022-09-27T19:27:49;5.47;;;3.03;;
26098;SDS011;13860;52.370;6.764;2022-09-27T19:30:53;6.55;;;2.70;;
26098;SDS011;13860;52.370;6.764;2022-09-27T19:37:01;7.75;;;3.28;;
26098;SDS011;13860;52.370;6.764;2022-09-27T19:40:07;9.45;;;3.00;;
26098;SDS011;13860;52.370;6.764;2022-09-27T19:43:11;7.78;;;3.88;;
26098;SDS011;13860;52.370;6.764;2022-09-27T19:46:15;7.40;;;3.15;;
26098;SDS011;13860;52.370;6.764;2022-09-27T19:49:19;4.15;;;3.05;;
26098;SDS011;13860;52.370;6.764;2022-09-27T19:52:23;7.93;;;2.90;;
26098;SDS011;13860;52.370;6.764;2022-09-27T19:55:28;8.82;;;3.55;;
26098;SDS011;13860;52.370;6.764;2022-09-27T19:58:32;7.50;;;3.75;;
26098;SDS011;13860;52.370;6.764;2022-09-27T20:01:37;5.70;;;3.75;;
26098;SDS011;13860;52.370;6.764;2022-09-27T20:04:42;8.10;;;3.28;;